Time;durP1;ratioP1;P1;durP2;ratioP2;P2;SDS_P1;SDS_P2;PMS_P1;PMS_P2;Temp;Humidity;BMP_temperature;BMP_pressure;BME280_temperature;BME280_humidity;BME280_pressure;Samples;Min_cycle;Max_cycle;Signal;HPM_P1;HPM_P2
2024/02/02 06:01:16;;;;;;;14.47;6.97;;;;;;;;;;5557084;23;20496;-74
2024/02/02 06:03:42;;;;;;;20.03;6.50;;;;;;;;;;4931009;29;20440;-75
2024/02/02 06:06:08;;;;;;;11.87;7.27;;;;;;;;;;4933071;29;20434;-74
2024/02/02 06:08:34;;;;;;;16.70;7.60;;;;;;;;;;4936866;29;20846;-74
2024/02/02 06:11:00;;;;;;;13.77;7.53;;;;;;;;;;4935376;29;20436;-74
2024/02/02 06:13:26;;;;;;;12.73;7.17;;;;;;;;;;4936251;29;20413;-73
2024/02/02 06:15:52;;;;;;;13.47;6.83;;;;;;;;;;4936280;29;20418;-74
2024/02/02 06:18:19;;;;;;;14.50;7.63;;;;;;;;;;4935255;29;20418;-74
2024/02/02 06:20:46;;;;;;;15.77;7.07;;;;;;;;;;4935830;29;20429;-74
2024/02/02 06:23:12;;;;;;;16.30;7.10;;;;;;;;;;4935270;29;20418;-73
2024/02/02 06:25:38;;;;;;;14.60;7.03;;;;;;;;;;4935413;29;20500;-75
2024/02/02 06:28:04;;;;;;;13.77;6.17;;;;;;;;;;4935365;29;20421;-75
2024/02/02 06:30:31;;;;;;;16.60;7.47;;;;;;;;;;4935030;29;20438;-74
2024/02/02 06:32:59;;;;;;;20.87;7.30;;;;;;;;;;4933700;29;20426;-74
2024/02/02 06:35:28;;;;;;;20.90;8.57;;;;;;;;;;4934866;29;20414;-73
2024/02/02 06:37:54;;;;;;;19.00;9.10;;;;;;;;;;4934500;29;20457;-75
2024/02/02 06:40:21;;;;;;;21.23;8.87;;;;;;;;;;4935955;29;20414;-74
2024/02/02 06:42:47;;;;;;;21.43;8.90;;;;;;;;;;4935942;29;20424;-73
2024/02/02 06:45:13;;;;;;;26.83;10.53;;;;;;;;;;4935911;29;20409;-73
2024/02/02 06:47:39;;;;;;;28.23;12.70;;;;;;;;;;4935680;29;20956;-73
2024/02/02 06:50:05;;;;;;;21.53;9.53;;;;;;;;;;4935179;29;20453;-75
2024/02/02 06:52:31;;;;;;;17.30;9.90;;;;;;;;;;4935334;29;20437;-75
2024/02/02 06:54:57;;;;;;;18.70;9.30;;;;;;;;;;4934567;29;20560;-74
2024/02/02 06:57:25;;;;;;;16.60;8.70;;;;;;;;;;4934581;29;20468;-74
2024/02/02 06:59:51;;;;;;;27.20;9.37;;;;;;;;;;4934750;29;20779;-73
2024/02/02 07:02:21;;;;;;;21.90;11.43;;;;;;;;;;4934525;29;20513;-74
2024/02/02 07:04:48;;;;;;;16.47;9.77;;;;;;;;;;4934536;29;20417;-74
2024/02/02 07:07:14;;;;;;;17.03;8.00;;;;;;;;;;4934250;29;20413;-73
2024/02/02 07:09:45;;;;;;;18.40;9.67;;;;;;;;;;4935094;29;20417;-73
2024/02/02 07:12:20;;;;;;;19.50;8.73;;;;;;;;;;4942082;29;20438;-75
2024/02/02 07:14:47;;;;;;;15.83;8.63;;;;;;;;;;4945021;29;20417;-74
2024/02/02 07:17:29;;;;;;;18.77;8.80;;;;;;;;;;4939149;29;20488;-74
2024/02/02 07:19:57;;;;;;;19.53;9.07;;;;;;;;;;4934778;29;20417;-73
2024/02/02 07:22:31;;;;;;;19.53;7.83;;;;;;;;;;4934733;29;20462;-73
2024/02/02 07:24:57;;;;;;;22.57;9.10;;;;;;;;;;4933273;29;20501;-74
2024/02/02 07:27:26;;;;;;;21.77;8.40;;;;;;;;;;4934286;29;20414;-74
2024/02/02 07:29:52;;;;;;;19.67;9.40;;;;;;;;;;4934688;29;20417;-73
2024/02/02 07:32:18;;;;;;;14.80;8.13;;;;;;;;;;4934267;29;20488;-74
2024/02/02 07:34:47;;;;;;;21.57;10.00;;;;;;;;;;4934173;29;20410;-73
2024/02/02 07:37:33;;;;;;;16.40;7.53;;;;;;;;;;4934159;29;20461;-74
2024/02/02 07:40:00;;;;;;;18.00;7.80;;;;;;;;;;4933926;29;20545;-75
2024/02/02 07:42:26;;;;;;;18.60;9.10;;;;;;;;;;4934231;29;21016;-74
2024/02/02 07:44:52;;;;;;;20.73;9.07;;;;;;;;;;4934140;29;20808;-74
2024/02/02 07:47:18;;;;;;;22.00;8.83;;;;;;;;;;4934367;29;20418;-74
2024/02/02 07:49:44;;;;;;;22.50;8.87;;;;;;;;;;4932616;29;20557;-74
2024/02/02 07:52:10;;;;;;;17.33;9.30;;;;;;;;;;4932710;29;20537;-74
2024/02/02 07:54:36;;;;;;;17.47;9.00;;;;;;;;;;4934223;29;20453;-74
2024/02/02 07:57:02;;;;;;;25.13;8.60;;;;;;;;;;4934164;29;20503;-75
2024/02/02 07:59:28;;;;;;;20.70;9.57;;;;;;;;;;4934033;29;20418;-74
2024/02/02 08:01:54;;;;;;;21.50;10.00;;;;;;;;;;4934007;29;20505;-74
2024/02/02 08:04:20;;;;;;;24.30;10.27;;;;;;;;;;4934062;29;20442;-73
2024/02/02 08:06:47;;;;;;;14.97;8.83;;;;;;;;;;4934161;29;20968;-74
2024/02/02 08:09:13;;;;;;;20.60;10.13;;;;;;;;;;4932759;29;20433;-74
2024/02/02 08:11:39;;;;;;;20.17;10.43;;;;;;;;;;4932809;29;20441;-74
2024/02/02 08:14:05;;;;;;;23.73;9.77;;;;;;;;;;4933967;29;20421;-74
2024/02/02 08:16:31;;;;;;;22.23;11.33;;;;;;;;;;4933990;29;20475;-74
2024/02/02 08:18:57;;;;;;;20.90;10.17;;;;;;;;;;4932744;29;20429;-74
2024/02/02 08:21:25;;;;;;;21.90;10.40;;;;;;;;;;4936965;29;20438;-74
2024/02/02 08:23:51;;;;;;;24.03;10.13;;;;;;;;;;4937525;29;20460;-74
2024/02/02 08:26:17;;;;;;;22.03;10.03;;;;;;;;;;4937045;29;20981;-73
2024/02/02 08:28:44;;;;;;;17.87;9.37;;;;;;;;;;4935827;29;20422;-74
2024/02/02 08:31:10;;;;;;;27.13;9.60;;;;;;;;;;4937352;29;20441;-74
2024/02/02 08:33:37;;;;;;;19.97;10.07;;;;;;;;;;4937178;29;20442;-75
2024/02/02 08:36:03;;;;;;;18.70;10.53;;;;;;;;;;4937304;29;20418;-75
2024/02/02 08:38:29;;;;;;;18.70;9.17;;;;;;;;;;4936720;29;20462;-75
2024/02/02 08:40:55;;;;;;;15.30;9.33;;;;;;;;;;4936872;29;20433;-74
2024/02/02 08:43:22;;;;;;;23.47;11.00;;;;;;;;;;4936957;29;20414;-75
2024/02/02 08:46:07;;;;;;;19.30;9.07;;;;;;;;;;4937016;29;20917;-75
2024/02/02 08:48:41;;;;;;;21.97;9.70;;;;;;;;;;4936780;29;20477;-74
2024/02/02 08:51:27;;;;;;;15.33;9.77;;;;;;;;;;4936915;29;21016;-74
2024/02/02 08:54:11;;;;;;;21.97;10.60;;;;;;;;;;4936856;29;20433;-74
2024/02/02 08:56:37;;;;;;;20.93;9.20;;;;;;;;;;4935390;29;21071;-75
2024/02/02 08:59:09;;;;;;;15.97;8.47;;;;;;;;;;4936688;29;20414;-75
2024/02/02 09:01:42;;;;;;;20.77;9.40;;;;;;;;;;4936716;29;20445;-75
2024/02/02 09:04:26;;;;;;;17.70;8.40;;;;;;;;;;4936536;29;20410;-74
2024/02/02 09:06:53;;;;;;;14.83;9.53;;;;;;;;;;4936668;29;20416;-74
2024/02/02 09:09:20;;;;;;;23.63;9.87;;;;;;;;;;4936370;29;20787;-75
2024/02/02 09:11:48;;;;;;;19.27;9.33;;;;;;;;;;4936534;29;20437;-75
2024/02/02 09:14:17;;;;;;;16.50;9.37;;;;;;;;;;4935229;29;20441;-76
2024/02/02 09:16:44;;;;;;;23.23;10.90;;;;;;;;;;4936321;29;20850;-75
2024/02/02 09:19:16;;;;;;;21.87;10.83;;;;;;;;;;4936357;29;20509;-75
2024/02/02 09:21:42;;;;;;;17.13;9.90;;;;;;;;;;4936540;29;20804;-74
2024/02/02 09:24:13;;;;;;;25.77;10.30;;;;;;;;;;4936289;29;20413;-74
2024/02/02 09:26:39;;;;;;;17.10;9.30;;;;;;;;;;4935008;29;20418;-75
2024/02/02 09:29:05;;;;;;;19.17;9.40;;;;;;;;;;4934685;29;20480;-76
2024/02/02 09:31:37;;;;;;;15.70;9.70;;;;;;;;;;4936020;29;20442;-76
2024/02/02 09:34:06;;;;;;;17.40;9.07;;;;;;;;;;4936248;29;20429;-75
2024/02/02 09:36:33;;;;;;;16.10;9.10;;;;;;;;;;4934948;29;20548;-75
2024/02/02 09:39:03;;;;;;;17.00;9.60;;;;;;;;;;4936072;29;20508;-75
2024/02/02 09:41:29;;;;;;;20.63;10.13;;;;;;;;;;4934853;29;20434;-76
2024/02/02 09:44:03;;;;;;;31.60;11.63;;;;;;;;;;4936313;29;20517;-75
2024/02/02 09:46:48;;;;;;;17.37;9.87;;;;;;;;;;4936455;29;20422;-75
2024/02/02 09:49:13;;;;;;;22.87;10.20;;;;;;;;;;4936031;29;20429;-75
2024/02/02 09:51:43;;;;;;;23.07;11.23;;;;;;;;;;4934838;29;20438;-75
2024/02/02 09:54:09;;;;;;;26.13;11.83;;;;;;;;;;4933897;29;20460;-75
2024/02/02 09:56:35;;;;;;;16.73;9.67;;;;;;;;;;4935982;29;20469;-74
2024/02/02 09:59:00;;;;;;;16.70;9.57;;;;;;;;;;4935664;29;20889;-75
2024/02/02 10:01:39;;;;;;;22.90;10.50;;;;;;;;;;4935630;29;20517;-75
2024/02/02 10:04:05;;;;;;;21.30;9.47;;;;;;;;;;4935557;29;20417;-75
2024/02/02 10:06:49;;;;;;;21.33;10.73;;;;;;;;;;4935519;29;20432;-75
2024/02/02 10:09:21;;;;;;;19.20;10.33;;;;;;;;;;4935542;29;20472;-76
2024/02/02 10:11:56;;;;;;;27.70;10.43;;;;;;;;;;4935626;29;20429;-74
2024/02/02 10:14:22;;;;;;;18.77;8.73;;;;;;;;;;4935885;29;20464;-75
2024/02/02 10:16:57;;;;;;;19.63;10.37;;;;;;;;;;4935305;29;20449;-75
2024/02/02 10:19:35;;;;;;;20.10;10.17;;;;;;;;;;4935433;29;20500;-75
2024/02/02 10:22:13;;;;;;;24.43;11.27;;;;;;;;;;4948879;29;20449;-74
2024/02/02 10:24:50;;;;;;;20.27;10.00;;;;;;;;;;4955550;29;20453;-73
2024/02/02 10:27:16;;;;;;;19.57;11.97;;;;;;;;;;4947761;29;20421;-75
2024/02/02 10:29:49;;;;;;;20.07;10.13;;;;;;;;;;4950976;29;20418;-74
2024/02/02 10:32:33;;;;;;;22.30;12.20;;;;;;;;;;4942653;29;20456;-75
2024/02/02 10:35:17;;;;;;;22.07;9.70;;;;;;;;;;4941596;29;20751;-75
2024/02/02 10:37:48;;;;;;;18.23;8.97;;;;;;;;;;4934157;29;20457;-76
2024/02/02 10:40:30;;;;;;;15.07;8.87;;;;;;;;;;4934945;29;20409;-75
2024/02/02 10:43:11;;;;;;;21.87;9.33;;;;;;;;;;4937020;29;20421;-75
2024/02/02 10:45:42;;;;;;;25.63;9.80;;;;;;;;;;4940588;29;20425;-75
2024/02/02 10:48:15;;;;;;;24.70;10.03;;;;;;;;;;4939410;29;20437;-75
2024/02/02 10:50:47;;;;;;;15.90;8.47;;;;;;;;;;4940852;29;20926;-76
2024/02/02 10:53:31;;;;;;;12.60;5.43;;;;;;;;;;4939509;29;20430;-75
2024/02/02 10:55:57;;;;;;;9.30;4.20;;;;;;;;;;4940697;29;20410;-75
2024/02/02 10:58:29;;;;;;;6.33;4.27;;;;;;;;;;4934357;29;20835;-76
2024/02/02 11:01:28;;;;;;;5.90;3.57;;;;;;;;;;4934633;29;20884;-76
2024/02/02 11:04:10;;;;;;;3.90;3.07;;;;;;;;;;4923218;29;20437;-76
2024/02/02 11:06:55;;;;;;;5.13;3.70;;;;;;;;;;4934655;29;20444;-75
2024/02/02 11:09:29;;;;;;;6.60;3.17;;;;;;;;;;4934442;29;20423;-76
2024/02/02 11:12:00;;;;;;;4.53;3.40;;;;;;;;;;4934543;29;20426;-76
2024/02/02 11:14:32;;;;;;;5.60;3.27;;;;;;;;;;4934727;29;20497;-75
2024/02/02 11:17:04;;;;;;;5.00;2.67;;;;;;;;;;4934632;29;20461;-76
2024/02/02 11:19:49;;;;;;;4.40;3.17;;;;;;;;;;4934468;29;20421;-76
2024/02/02 11:22:24;;;;;;;9.07;3.60;;;;;;;;;;4934418;29;20430;-76
2024/02/02 11:24:56;;;;;;;3.10;2.57;;;;;;;;;;4932899;29;20421;-76
2024/02/02 11:27:43;;;;;;;2.97;2.73;;;;;;;;;;4934329;29;20468;-76
2024/02/02 11:30:21;;;;;;;4.70;2.20;;;;;;;;;;4923670;29;20901;-75
2024/02/02 11:33:03;;;;;;;4.80;3.10;;;;;;;;;;4934472;29;20424;-76
2024/02/02 11:35:44;;;;;;;5.50;2.00;;;;;;;;;;4934566;29;20874;-75
2024/02/02 11:38:28;;;;;;;4.40;2.53;;;;;;;;;;4933959;29;20823;-76
2024/02/02 11:40:54;;;;;;;3.70;2.57;;;;;;;;;;4934256;29;20576;-76
2024/02/02 11:43:22;;;;;;;2.33;1.87;;;;;;;;;;4934798;29;20429;-76
2024/02/02 11:45:49;;;;;;;2.93;2.27;;;;;;;;;;4933165;29;20902;-76
2024/02/02 11:48:21;;;;;;;4.17;2.00;;;;;;;;;;4932782;29;20422;-76
2024/02/02 11:50:48;;;;;;;4.47;2.03;;;;;;;;;;4934381;29;20433;-75
2024/02/02 11:53:14;;;;;;;3.00;2.07;;;;;;;;;;4934400;29;20450;-74
2024/02/02 11:55:44;;;;;;;9.20;2.23;;;;;;;;;;4936482;29;20425;-74
2024/02/02 11:58:12;;;;;;;2.20;2.00;;;;;;;;;;4937761;29;20493;-76
2024/02/02 12:00:50;;;;;;;2.33;1.80;;;;;;;;;;4937577;29;20883;-76
2024/02/02 12:03:16;;;;;;;3.07;2.10;;;;;;;;;;4936624;29;20420;-74
2024/02/02 12:06:08;;;;;;;2.00;1.90;;;;;;;;;;4937712;29;20417;-76
2024/02/02 12:08:50;;;;;;;3.43;1.87;;;;;;;;;;4936500;29;20421;-76
2024/02/02 12:11:18;;;;;;;2.33;2.10;;;;;;;;;;4937780;29;20484;-75
2024/02/02 12:16:12;;;;;;;2.50;1.80;;;;;;;;;;4956343;29;20801;-75
2024/02/02 12:18:39;;;;;;;2.07;1.60;;;;;;;;;;4956185;28;20429;-75
2024/02/02 12:21:15;;;;;;;2.87;1.93;;;;;;;;;;4957484;28;20409;-74
2024/02/02 12:23:41;;;;;;;4.00;1.60;;;;;;;;;;4958826;28;20419;-74
2024/02/02 12:26:07;;;;;;;2.33;1.63;;;;;;;;;;4960424;28;20493;-75
2024/02/02 12:28:33;;;;;;;3.67;1.93;;;;;;;;;;4959637;28;20409;-75
2024/02/02 12:30:59;;;;;;;5.73;1.90;;;;;;;;;;4958193;28;20437;-76
2024/02/02 12:33:25;;;;;;;3.23;1.87;;;;;;;;;;4957835;28;20517;-75
2024/02/02 12:35:51;;;;;;;3.60;1.70;;;;;;;;;;4957572;28;20433;-75
2024/02/02 12:38:23;;;;;;;3.97;1.97;;;;;;;;;;4956606;28;20468;-75
2024/02/02 12:40:49;;;;;;;6.20;2.00;;;;;;;;;;4956832;28;20424;-75
2024/02/02 12:43:22;;;;;;;2.60;1.43;;;;;;;;;;4956947;28;20889;-75
2024/02/02 12:45:48;;;;;;;1.60;1.60;;;;;;;;;;4957472;28;20524;-75
2024/02/02 12:48:14;;;;;;;1.87;1.60;;;;;;;;;;4957211;28;20552;-75
2024/02/02 12:50:43;;;;;;;1.83;1.30;;;;;;;;;;4956933;28;21197;-75
2024/02/02 12:53:10;;;;;;;1.80;1.40;;;;;;;;;;4956639;28;20428;-75
2024/02/02 12:55:36;;;;;;;2.13;1.83;;;;;;;;;;4956990;28;20804;-75
2024/02/02 12:58:02;;;;;;;4.83;2.13;;;;;;;;;;4956631;28;20511;-76
2024/02/02 13:00:28;;;;;;;2.67;1.63;;;;;;;;;;4956427;28;20421;-75
2024/02/02 13:02:55;;;;;;;1.53;1.30;;;;;;;;;;4956751;28;20417;-75
2024/02/02 13:05:22;;;;;;;1.63;1.50;;;;;;;;;;4956937;28;20429;-75
2024/02/02 13:07:50;;;;;;;1.70;1.33;;;;;;;;;;4962308;28;20425;-75
2024/02/02 13:10:37;;;;;;;1.43;1.33;;;;;;;;;;4957876;28;20459;-75
2024/02/02 13:13:10;;;;;;;2.47;1.50;;;;;;;;;;4948196;29;20479;-75
2024/02/02 13:15:36;;;;;;;7.13;1.97;;;;;;;;;;4954658;28;20464;-75
2024/02/02 13:18:05;;;;;;;2.03;1.70;;;;;;;;;;4956001;28;20560;-75
2024/02/02 13:20:34;;;;;;;1.67;1.37;;;;;;;;;;4956288;28;20471;-75
2024/02/02 13:23:10;;;;;;;2.13;1.57;;;;;;;;;;4956841;28;21075;-75
2024/02/02 13:25:36;;;;;;;4.30;1.10;;;;;;;;;;4956121;28;20796;-75
2024/02/02 13:28:02;;;;;;;4.53;1.40;;;;;;;;;;4955567;28;20463;-76
2024/02/02 13:30:32;;;;;;;7.03;1.70;;;;;;;;;;4956028;28;20421;-75
2024/02/02 13:33:03;;;;;;;3.80;1.67;;;;;;;;;;4956033;28;20897;-75
2024/02/02 13:35:31;;;;;;;2.30;1.40;;;;;;;;;;4956751;28;20803;-75
2024/02/02 13:37:57;;;;;;;2.73;1.47;;;;;;;;;;4956577;28;20555;-75
2024/02/02 13:40:30;;;;;;;5.50;1.50;;;;;;;;;;4959120;28;20440;-75
2024/02/02 13:42:57;;;;;;;2.63;1.30;;;;;;;;;;4955302;28;20452;-75
2024/02/02 13:45:24;;;;;;;2.10;1.10;;;;;;;;;;4963681;28;20436;-77
2024/02/02 13:47:59;;;;;;;2.17;1.63;;;;;;;;;;4968037;28;20416;-76
2024/02/02 13:50:40;;;;;;;2.60;1.60;;;;;;;;;;4957509;28;20830;-77
2024/02/02 13:53:06;;;;;;;3.80;1.47;;;;;;;;;;4958794;28;20479;-77
2024/02/02 13:55:35;;;;;;;2.83;1.30;;;;;;;;;;4958767;28;20451;-77
2024/02/02 13:58:01;;;;;;;1.40;1.37;;;;;;;;;;4957136;28;20456;-78
2024/02/02 14:00:31;;;;;;;2.90;1.70;;;;;;;;;;4954502;28;20998;-77
2024/02/02 14:03:07;;;;;;;1.60;1.50;;;;;;;;;;4954272;28;20429;-77
2024/02/02 14:05:33;;;;;;;3.27;1.50;;;;;;;;;;4955049;28;20448;-77
2024/02/02 14:07:59;;;;;;;1.13;1.03;;;;;;;;;;4955036;28;20417;-78
2024/02/02 14:10:29;;;;;;;2.87;1.50;;;;;;;;;;4956132;28;20768;-77
2024/02/02 14:12:56;;;;;;;3.10;1.37;;;;;;;;;;4954249;28;20760;-77
2024/02/02 14:15:22;;;;;;;6.97;1.90;;;;;;;;;;4955029;28;20460;-77
2024/02/02 14:17:48;;;;;;;1.60;1.37;;;;;;;;;;4954108;28;20471;-77
2024/02/02 14:20:14;;;;;;;2.63;1.63;;;;;;;;;;4953404;28;20417;-78
2024/02/02 14:22:42;;;;;;;1.63;1.40;;;;;;;;;;4954867;28;20417;-77
2024/02/02 14:25:08;;;;;;;4.23;2.10;;;;;;;;;;4954956;28;20432;-77
2024/02/02 14:27:38;;;;;;;1.90;1.57;;;;;;;;;;4954711;28;20421;-77
2024/02/02 14:30:07;;;;;;;2.67;1.80;;;;;;;;;;4955202;28;20507;-77
2024/02/02 14:32:34;;;;;;;2.97;2.03;;;;;;;;;;4954831;28;20783;-77
2024/02/02 14:35:00;;;;;;;1.47;1.37;;;;;;;;;;4954291;28;20437;-77
2024/02/02 14:37:26;;;;;;;2.27;1.60;;;;;;;;;;4954194;28;21250;-76
2024/02/02 14:39:56;;;;;;;3.80;1.60;;;;;;;;;;4953977;28;20446;-77
2024/02/02 14:42:23;;;;;;;3.33;1.70;;;;;;;;;;4954531;28;20540;-76
2024/02/02 14:44:49;;;;;;;2.30;1.90;;;;;;;;;;4954222;28;20429;-77
2024/02/02 14:47:15;;;;;;;2.20;1.37;;;;;;;;;;4954227;28;20532;-77
2024/02/02 14:49:41;;;;;;;3.37;1.60;;;;;;;;;;4953939;28;20491;-77
2024/02/02 14:52:07;;;;;;;4.23;1.37;;;;;;;;;;4954580;28;20923;-77
2024/02/02 14:54:33;;;;;;;2.40;1.57;;;;;;;;;;4954162;28;20444;-77
2024/02/02 14:56:59;;;;;;;6.30;1.60;;;;;;;;;;4953995;28;20528;-77
2024/02/02 14:59:29;;;;;;;3.03;1.27;;;;;;;;;;4953911;28;20851;-77
2024/02/02 15:01:58;;;;;;;1.33;1.10;;;;;;;;;;4954254;28;20412;-77
2024/02/02 15:04:24;;;;;;;1.97;1.70;;;;;;;;;;4954168;28;20999;-77
2024/02/02 15:06:50;;;;;;;1.57;1.30;;;;;;;;;;4954408;28;20824;-78
2024/02/02 15:09:16;;;;;;;5.50;1.30;;;;;;;;;;4954458;28;20491;-76
2024/02/02 15:11:43;;;;;;;2.10;1.40;;;;;;;;;;4955023;28;20417;-77
2024/02/02 15:14:09;;;;;;;2.10;1.27;;;;;;;;;;4954927;28;20459;-77
2024/02/02 15:16:36;;;;;;;1.97;1.13;;;;;;;;;;4954202;28;20464;-77
2024/02/02 15:19:05;;;;;;;2.30;1.50;;;;;;;;;;4953906;28;20944;-77
2024/02/02 15:21:31;;;;;;;2.67;1.90;;;;;;;;;;4954635;28;20429;-77
2024/02/02 15:23:57;;;;;;;6.20;2.23;;;;;;;;;;4954007;28;20938;-77
2024/02/02 15:26:23;;;;;;;7.80;2.57;;;;;;;;;;4954271;28;20420;-77
2024/02/02 15:28:50;;;;;;;4.43;2.70;;;;;;;;;;4954887;28;20409;-77
2024/02/02 15:31:17;;;;;;;12.03;2.90;;;;;;;;;;4958041;28;20916;-77
2024/02/02 15:33:43;;;;;;;4.40;2.90;;;;;;;;;;4957696;28;20445;-77
2024/02/02 15:36:11;;;;;;;5.37;3.43;;;;;;;;;;4957919;28;20500;-77
2024/02/02 15:38:37;;;;;;;3.80;2.47;;;;;;;;;;4957902;28;20405;-77
2024/02/02 15:41:10;;;;;;;3.27;2.23;;;;;;;;;;4957679;28;20500;-77
2024/02/02 15:43:36;;;;;;;3.87;2.30;;;;;;;;;;4957792;28;20400;-78
2024/02/02 15:46:02;;;;;;;4.63;2.40;;;;;;;;;;4958909;28;20464;-77
2024/02/02 15:48:28;;;;;;;5.37;2.60;;;;;;;;;;4957957;28;20789;-77
2024/02/02 15:50:54;;;;;;;4.50;2.37;;;;;;;;;;4958250;28;20427;-77
2024/02/02 15:53:20;;;;;;;3.60;2.37;;;;;;;;;;4956755;28;20435;-77
2024/02/02 15:55:46;;;;;;;3.37;2.00;;;;;;;;;;4957656;28;20506;-76
2024/02/02 15:58:12;;;;;;;3.83;2.27;;;;;;;;;;4956567;28;20480;-76
2024/02/02 16:00:38;;;;;;;5.20;2.90;;;;;;;;;;4957538;28;20418;-77
2024/02/02 16:03:04;;;;;;;2.70;2.27;;;;;;;;;;4957674;28;20413;-77
2024/02/02 16:05:30;;;;;;;6.03;2.70;;;;;;;;;;4957040;28;20799;-77
2024/02/02 16:07:56;;;;;;;5.60;2.83;;;;;;;;;;4957975;28;20408;-77
2024/02/02 16:10:23;;;;;;;7.17;3.53;;;;;;;;;;4959684;28;20409;-77
2024/02/02 16:12:49;;;;;;;4.50;3.30;;;;;;;;;;4957450;29;20532;-77
2024/02/02 16:15:14;;;;;;;10.77;3.43;;;;;;;;;;4956977;28;20543;-77
2024/02/02 16:17:41;;;;;;;5.53;3.17;;;;;;;;;;4957146;28;20480;-77
2024/02/02 16:20:11;;;;;;;7.27;3.07;;;;;;;;;;4957024;28;20413;-77
2024/02/02 16:22:37;;;;;;;4.10;2.43;;;;;;;;;;4957040;28;20420;-77
2024/02/02 16:25:04;;;;;;;4.20;2.87;;;;;;;;;;4957008;28;20463;-77
2024/02/02 16:27:32;;;;;;;4.93;2.80;;;;;;;;;;4956843;28;20413;-77
2024/02/02 16:29:58;;;;;;;5.07;2.57;;;;;;;;;;4956957;28;20920;-77
2024/02/02 16:32:24;;;;;;;4.40;3.00;;;;;;;;;;4956904;28;20447;-77
2024/02/02 16:34:50;;;;;;;4.30;3.27;;;;;;;;;;4956510;28;20428;-77
2024/02/02 16:37:16;;;;;;;13.20;3.37;;;;;;;;;;4956479;28;20456;-77
2024/02/02 16:39:43;;;;;;;14.00;5.40;;;;;;;;;;4957056;28;20436;-77
2024/02/02 16:42:09;;;;;;;9.57;5.43;;;;;;;;;;4958934;28;20417;-76
2024/02/02 16:44:35;;;;;;;4.30;3.03;;;;;;;;;;4958905;28;20951;-77
2024/02/02 16:47:02;;;;;;;4.67;2.83;;;;;;;;;;4958057;28;20507;-77
2024/02/02 16:49:28;;;;;;;4.97;2.77;;;;;;;;;;4956795;28;20428;-77
2024/02/02 16:51:54;;;;;;;5.80;2.90;;;;;;;;;;4956747;28;20409;-75
2024/02/02 16:54:20;;;;;;;5.17;2.57;;;;;;;;;;4956817;28;20447;-73
2024/02/02 16:56:46;;;;;;;6.47;3.47;;;;;;;;;;4964302;28;20630;-77
2024/02/02 16:59:12;;;;;;;7.57;3.87;;;;;;;;;;4961355;28;20825;-74
2024/02/02 17:01:38;;;;;;;6.30;3.80;;;;;;;;;;4956274;28;20417;-72
2024/02/02 17:04:04;;;;;;;5.80;3.33;;;;;;;;;;4955760;28;20869;-74
2024/02/02 17:06:32;;;;;;;7.40;3.60;;;;;;;;;;4956178;28;20471;-72
2024/02/02 17:08:58;;;;;;;7.03;4.00;;;;;;;;;;4955148;28;20432;-76
2024/02/02 17:11:24;;;;;;;6.20;3.07;;;;;;;;;;4952199;28;20440;-77
2024/02/02 17:13:50;;;;;;;4.20;3.00;;;;;;;;;;4947030;28;20436;-77
2024/02/02 17:16:19;;;;;;;4.50;3.20;;;;;;;;;;4955420;28;20421;-77
2024/02/02 17:18:45;;;;;;;7.40;3.50;;;;;;;;;;4948408;28;20718;-77
2024/02/02 17:21:11;;;;;;;8.13;4.03;;;;;;;;;;4955510;28;20428;-77
2024/02/02 17:23:37;;;;;;;9.27;3.80;;;;;;;;;;4955127;28;20496;-76
2024/02/02 17:26:04;;;;;;;4.73;2.57;;;;;;;;;;4955047;28;20436;-76
2024/02/02 17:28:30;;;;;;;5.27;2.93;;;;;;;;;;4949862;28;20413;-77
2024/02/02 17:30:56;;;;;;;6.03;3.40;;;;;;;;;;4954932;28;20916;-77
2024/02/02 17:33:22;;;;;;;4.40;2.90;;;;;;;;;;4954362;28;20416;-76
2024/02/02 17:35:48;;;;;;;4.50;2.90;;;;;;;;;;4955169;28;20436;-77
2024/02/02 17:38:15;;;;;;;7.10;3.80;;;;;;;;;;4954945;28;20496;-78
2024/02/02 17:40:46;;;;;;;5.40;3.40;;;;;;;;;;4955127;28;20468;-76
2024/02/02 17:43:12;;;;;;;14.73;4.90;;;;;;;;;;4949359;28;20441;-77
2024/02/02 17:45:38;;;;;;;8.27;4.70;;;;;;;;;;4951320;29;20448;-77
2024/02/02 17:48:04;;;;;;;10.67;4.83;;;;;;;;;;4949206;28;20420;-77
2024/02/02 17:50:30;;;;;;;6.90;3.77;;;;;;;;;;4955033;28;20434;-76
2024/02/02 17:52:56;;;;;;;15.03;5.33;;;;;;;;;;4954845;28;20436;-76
2024/02/02 17:55:25;;;;;;;14.20;6.60;;;;;;;;;;4954842;28;20440;-77
2024/02/02 17:57:51;;;;;;;11.93;5.33;;;;;;;;;;4954692;28;20468;-77
2024/02/02 18:00:17;;;;;;;13.67;6.60;;;;;;;;;;4950308;28;20424;-76
2024/02/02 18:02:43;;;;;;;17.00;7.53;;;;;;;;;;4937433;28;20432;-76
2024/02/02 18:05:09;;;;;;;8.50;4.90;;;;;;;;;;4935407;29;20438;-76
2024/02/02 18:07:37;;;;;;;10.70;5.07;;;;;;;;;;4935609;29;20857;-76
2024/02/02 18:10:03;;;;;;;8.03;4.37;;;;;;;;;;4935037;29;20456;-78
2024/02/02 18:12:30;;;;;;;8.87;4.20;;;;;;;;;;4935434;29;20421;-76
2024/02/02 18:14:56;;;;;;;10.53;4.13;;;;;;;;;;4954177;23;20510;-77
2024/02/02 18:17:22;;;;;;;10.03;3.93;;;;;;;;;;4954426;29;20878;-78
2024/02/02 18:19:48;;;;;;;7.40;4.10;;;;;;;;;;4952293;29;20511;-72
2024/02/02 18:22:14;;;;;;;8.63;4.13;;;;;;;;;;4954119;29;20439;-71
2024/02/02 18:24:40;;;;;;;7.43;4.37;;;;;;;;;;4949792;29;20492;-78
2024/02/02 18:27:06;;;;;;;8.43;4.70;;;;;;;;;;4935515;29;20508;-78
2024/02/02 18:29:32;;;;;;;12.63;5.60;;;;;;;;;;4933664;29;20921;-77
2024/02/02 18:31:58;;;;;;;12.03;5.17;;;;;;;;;;4934999;29;20429;-76
2024/02/02 18:34:24;;;;;;;8.47;4.47;;;;;;;;;;4935029;29;20417;-77
2024/02/02 18:36:50;;;;;;;7.60;3.70;;;;;;;;;;4933726;29;20499;-77
2024/02/02 18:39:17;;;;;;;8.10;3.33;;;;;;;;;;4934074;29;20528;-76
2024/02/02 18:41:43;;;;;;;4.83;3.53;;;;;;;;;;4934770;29;20428;-76
2024/02/02 18:44:10;;;;;;;6.77;3.43;;;;;;;;;;4934342;29;20501;-76
2024/02/02 18:46:36;;;;;;;5.20;3.23;;;;;;;;;;4934646;29;20618;-78
2024/02/02 18:49:05;;;;;;;6.07;3.47;;;;;;;;;;4933440;29;20516;-75
2024/02/02 18:51:31;;;;;;;3.87;3.23;;;;;;;;;;4934701;29;20497;-77
2024/02/02 18:53:57;;;;;;;6.90;4.53;;;;;;;;;;4934334;29;20433;-76
2024/02/02 18:56:23;;;;;;;8.07;4.23;;;;;;;;;;4933305;29;20468;-77
2024/02/02 18:58:49;;;;;;;7.63;4.00;;;;;;;;;;4934416;29;20557;-75
2024/02/02 19:01:22;;;;;;;5.37;3.90;;;;;;;;;;4934135;29;20596;-76
2024/02/02 19:03:48;;;;;;;11.33;4.80;;;;;;;;;;4932717;29;20441;-76
2024/02/02 19:06:14;;;;;;;6.03;3.60;;;;;;;;;;4933680;29;20437;-76
2024/02/02 19:08:40;;;;;;;8.30;4.37;;;;;;;;;;4933478;29;20917;-78
2024/02/02 19:11:11;;;;;;;4.73;2.90;;;;;;;;;;4938271;29;20421;-78
2024/02/02 19:13:37;;;;;;;5.33;3.30;;;;;;;;;;4934729;29;20492;-78
2024/02/02 19:16:03;;;;;;;9.17;3.23;;;;;;;;;;4933227;29;21056;-78
2024/02/02 19:18:29;;;;;;;3.30;2.70;;;;;;;;;;4937343;29;20488;-77
2024/02/02 19:20:55;;;;;;;7.07;3.60;;;;;;;;;;4936518;29;20402;-78
2024/02/02 19:23:21;;;;;;;11.07;4.13;;;;;;;;;;4938533;29;20405;-77
2024/02/02 19:25:47;;;;;;;7.00;3.97;;;;;;;;;;4934504;29;20433;-78
2024/02/02 19:28:13;;;;;;;3.93;3.10;;;;;;;;;;4933908;29;20418;-77
2024/02/02 19:30:41;;;;;;;6.77;3.30;;;;;;;;;;4934154;29;20772;-76
2024/02/02 19:33:07;;;;;;;3.70;3.17;;;;;;;;;;4929540;29;20459;-76
2024/02/02 19:35:33;;;;;;;4.07;2.70;;;;;;;;;;4932946;29;20516;-72
2024/02/02 19:37:59;;;;;;;4.70;3.10;;;;;;;;;;4932556;29;20469;-69
2024/02/02 19:40:25;;;;;;;5.27;2.73;;;;;;;;;;4931514;29;20471;-70
2024/02/02 19:42:51;;;;;;;6.80;3.63;;;;;;;;;;4933393;29;20425;-70
2024/02/02 19:45:17;;;;;;;9.00;4.47;;;;;;;;;;4933582;29;20496;-71
2024/02/02 19:47:46;;;;;;;5.90;3.20;;;;;;;;;;4933616;29;20950;-77
2024/02/02 19:50:12;;;;;;;3.80;2.70;;;;;;;;;;4931927;29;20476;-76
2024/02/02 19:52:38;;;;;;;5.47;3.87;;;;;;;;;;4934179;29;20425;-76
2024/02/02 19:55:05;;;;;;;8.07;4.30;;;;;;;;;;4933199;29;20446;-77
2024/02/02 19:57:31;;;;;;;7.60;4.20;;;;;;;;;;4933161;29;20880;-76
2024/02/02 19:59:57;;;;;;;6.37;4.13;;;;;;;;;;4933222;29;20504;-77
2024/02/02 20:02:25;;;;;;;7.30;4.07;;;;;;;;;;4933229;29;20876;-76
2024/02/02 20:04:51;;;;;;;9.47;4.83;;;;;;;;;;4933485;29;20435;-78
2024/02/02 20:07:17;;;;;;;6.53;4.47;;;;;;;;;;4932802;29;20468;-77
2024/02/02 20:09:43;;;;;;;10.57;5.10;;;;;;;;;;4933671;29;20905;-77
2024/02/02 20:12:09;;;;;;;6.80;4.20;;;;;;;;;;4932952;29;20459;-78
2024/02/02 20:14:35;;;;;;;10.63;4.60;;;;;;;;;;4933030;29;20544;-75
2024/02/02 20:17:02;;;;;;;6.83;3.30;;;;;;;;;;4936093;29;20464;-76
2024/02/02 20:19:28;;;;;;;7.63;4.13;;;;;;;;;;4936852;29;20437;-76
2024/02/02 20:21:54;;;;;;;5.47;3.83;;;;;;;;;;4937227;29;20479;-79
2024/02/02 20:24:21;;;;;;;7.30;4.47;;;;;;;;;;4936421;29;20484;-75
2024/02/02 20:26:47;;;;;;;7.40;4.17;;;;;;;;;;4937234;29;20488;-78
2024/02/02 20:29:13;;;;;;;9.33;4.03;;;;;;;;;;4936852;29;20425;-76
2024/02/02 20:31:42;;;;;;;8.20;4.07;;;;;;;;;;4936105;29;20917;-77
2024/02/02 20:34:08;;;;;;;7.10;3.63;;;;;;;;;;4935809;29;20572;-74
2024/02/02 20:36:34;;;;;;;11.90;5.90;;;;;;;;;;4938408;29;20468;-75
2024/02/02 20:39:00;;;;;;;9.50;4.37;;;;;;;;;;4936965;29;20422;-78
2024/02/02 20:41:26;;;;;;;6.47;3.60;;;;;;;;;;4938672;29;20432;-78
2024/02/02 20:43:53;;;;;;;12.37;3.67;;;;;;;;;;4941169;29;20758;-72
2024/02/02 20:46:20;;;;;;;7.23;4.00;;;;;;;;;;4937342;29;20912;-70